createdAt,value
2023-02-04T00:01:39.502Z,6.30
2023-02-04T00:04:06.545Z,6.30
2023-02-04T00:06:33.565Z,6.30
2023-02-04T00:09:00.569Z,6.30
2023-02-04T00:11:27.607Z,6.30
2023-02-04T00:13:54.590Z,6.30
2023-02-04T00:16:21.669Z,6.30
2023-02-04T00:18:48.564Z,6.30
2023-02-04T00:21:15.673Z,6.30
2023-02-04T00:23:42.637Z,6.40
2023-02-04T00:26:09.580Z,6.30
2023-02-04T00:28:36.540Z,6.30
2023-02-04T00:31:03.676Z,6.40
2023-02-04T00:33:30.691Z,6.40
2023-02-04T00:35:57.650Z,6.40
2023-02-04T00:38:24.727Z,6.40
2023-02-04T00:40:51.887Z,6.40
2023-02-04T00:43:19.401Z,6.30
2023-02-04T00:45:46.459Z,6.30
2023-02-04T00:48:13.593Z,6.30
2023-02-04T00:50:40.592Z,6.30
2023-02-04T00:53:07.944Z,6.30
2023-02-04T00:55:34.893Z,6.30
2023-02-04T00:58:01.852Z,6.30
2023-02-04T01:00:29.141Z,6.30
2023-02-04T01:02:56.551Z,6.30
2023-02-04T01:05:23.563Z,6.30
2023-02-04T01:07:50.754Z,6.30
2023-02-04T01:10:18.101Z,6.30
2023-02-04T01:12:45.168Z,6.30
2023-02-04T01:15:12.539Z,6.30
2023-02-04T01:17:39.598Z,6.30
2023-02-04T01:20:07.152Z,6.30
2023-02-04T01:22:34.918Z,6.20
2023-02-04T01:25:02.341Z,6.30
2023-02-04T01:27:29.815Z,6.30
2023-02-04T01:29:57.021Z,6.30
2023-02-04T01:32:24.160Z,6.30
2023-02-04T01:34:51.088Z,6.30
2023-02-04T01:37:18.072Z,6.30
2023-02-04T01:39:45.004Z,6.30
2023-02-04T01:42:12.262Z,6.30
2023-02-04T01:44:39.687Z,6.30
2023-02-04T01:47:06.944Z,6.30
2023-02-04T01:49:34.014Z,6.30
2023-02-04T01:52:02.611Z,6.40
2023-02-04T01:54:29.689Z,6.40
2023-02-04T01:56:56.872Z,6.40
2023-02-04T01:59:24.289Z,6.50
2023-02-04T02:01:53.276Z,6.50
2023-02-04T02:04:40.417Z,6.50
2023-02-04T02:07:07.487Z,6.50
2023-02-04T02:09:34.854Z,6.50
2023-02-04T02:12:03.962Z,6.50
2023-02-04T02:14:31.122Z,6.50
2023-02-04T02:16:58.236Z,6.50
2023-02-04T02:19:32.406Z,6.60
2023-02-04T02:22:37.778Z,6.60
2023-02-04T02:25:09.773Z,6.60
2023-02-04T02:27:36.853Z,6.60
2023-02-04T02:30:04.639Z,6.60
2023-02-04T02:32:31.830Z,6.60
2023-02-04T02:34:58.882Z,6.50
2023-02-04T02:37:25.885Z,6.50
2023-02-04T02:39:52.934Z,6.40
2023-02-04T02:42:20.949Z,6.50
2023-02-04T02:44:49.471Z,6.60
2023-02-04T02:47:19.946Z,6.60
2023-02-04T02:49:52.747Z,6.60
2023-02-04T02:52:20.382Z,6.60
2023-02-04T02:54:47.696Z,6.60
2023-02-04T02:57:18.962Z,6.60
2023-02-04T02:59:46.165Z,6.80
2023-02-04T03:02:18.818Z,6.60
2023-02-04T03:04:51.105Z,6.60
2023-02-04T03:07:19.098Z,6.50
2023-02-04T03:09:46.375Z,6.50
2023-02-04T03:12:13.393Z,6.50
2023-02-04T03:14:40.339Z,6.60
2023-02-04T03:17:10.722Z,6.60
2023-02-04T03:19:38.910Z,6.50
2023-02-04T03:22:06.760Z,6.50
2023-02-04T03:24:33.902Z,6.60
2023-02-04T03:27:01.447Z,6.60
2023-02-04T03:29:29.793Z,6.60
2023-02-04T03:31:59.940Z,6.60
2023-02-04T03:34:27.511Z,6.60
2023-02-04T03:36:54.641Z,6.70
2023-02-04T03:39:21.811Z,6.60
2023-02-04T03:41:48.907Z,6.70
2023-02-04T03:44:16.595Z,6.70
2023-02-04T03:46:43.826Z,6.70
2023-02-04T03:49:11.037Z,6.70
2023-02-04T03:51:37.951Z,6.60
2023-02-04T03:54:04.894Z,6.60
2023-02-04T03:56:31.787Z,6.50
2023-02-04T03:58:58.822Z,6.50
2023-02-04T04:01:25.975Z,6.60
2023-02-04T04:03:53.112Z,6.60
2023-02-04T04:06:20.070Z,6.50
2023-02-04T04:08:47.133Z,6.40
2023-02-04T04:11:14.339Z,6.30
2023-02-04T04:13:41.399Z,6.40
2023-02-04T04:16:09.082Z,6.30
2023-02-04T04:18:36.327Z,6.20
2023-02-04T04:21:03.294Z,6.20
2023-02-04T04:23:30.300Z,6.20
2023-02-04T04:25:57.521Z,6.30
2023-02-04T04:28:24.522Z,6.30
2023-02-04T04:30:51.897Z,6.30
2023-02-04T04:33:18.985Z,6.40
2023-02-04T04:35:45.963Z,6.40
2023-02-04T04:38:12.944Z,6.30
2023-02-04T04:40:39.849Z,6.40
2023-02-04T04:43:06.809Z,6.40
2023-02-04T04:45:34.118Z,6.40
2023-02-04T04:48:01.246Z,6.30
2023-02-04T04:50:28.357Z,6.30
2023-02-04T04:52:55.486Z,6.30
2023-02-04T04:55:22.541Z,6.30
2023-02-04T04:57:49.707Z,6.30
2023-02-04T05:00:19.041Z,6.40
2023-02-04T05:02:46.698Z,6.40
2023-02-04T05:05:14.429Z,6.30
2023-02-04T05:07:41.387Z,6.30
2023-02-04T05:10:08.794Z,6.30
2023-02-04T05:12:35.688Z,6.40
2023-02-04T05:15:02.981Z,6.40
2023-02-04T05:17:29.977Z,6.40
2023-02-04T05:19:57.082Z,6.40
2023-02-04T05:22:24.008Z,6.30
2023-02-04T05:24:51.034Z,6.30
2023-02-04T05:27:18.004Z,6.40
2023-02-04T05:29:45.004Z,6.40
2023-02-04T05:32:12.274Z,6.40
2023-02-04T05:34:40.051Z,6.30
2023-02-04T05:37:07.026Z,6.30
2023-02-04T05:39:34.008Z,6.30
2023-02-04T05:42:01.072Z,6.30
2023-02-04T05:44:28.282Z,6.30
2023-02-04T05:46:55.502Z,6.30
2023-02-04T05:49:23.921Z,6.30
2023-02-04T05:51:50.904Z,6.30
2023-02-04T05:54:20.552Z,6.30
2023-02-04T05:56:48.033Z,6.40
2023-02-04T05:59:15.044Z,6.30
2023-02-04T06:01:42.319Z,6.30
2023-02-04T06:04:09.400Z,6.30
2023-02-04T06:06:36.402Z,6.30
2023-02-04T06:09:04.186Z,6.30
2023-02-04T06:11:31.201Z,6.30
2023-02-04T06:13:59.550Z,6.20
2023-02-04T06:16:27.195Z,6.20
2023-02-04T06:18:54.317Z,6.20
2023-02-04T06:21:21.370Z,6.20
2023-02-04T06:23:48.306Z,6.10
2023-02-04T06:26:15.352Z,6.00
2023-02-04T06:28:42.555Z,6.00
2023-02-04T06:31:09.701Z,6.00
2023-02-04T06:33:37.288Z,6.00
2023-02-04T06:36:05.511Z,6.00
2023-02-04T06:38:32.777Z,5.90
2023-02-04T06:40:59.817Z,6.10
2023-02-04T06:43:28.069Z,6.00
2023-02-04T06:45:55.437Z,6.00
2023-02-04T06:48:22.681Z,6.00
2023-02-04T06:50:49.636Z,5.90
2023-02-04T06:53:16.646Z,5.90
2023-02-04T06:55:43.671Z,6.00
2023-02-04T06:58:10.696Z,6.00
2023-02-04T07:00:37.975Z,5.90
2023-02-04T07:03:07.237Z,6.00
2023-02-04T07:05:34.545Z,6.10
2023-02-04T07:08:01.725Z,6.20
2023-02-04T07:10:29.236Z,6.20
2023-02-04T07:12:56.455Z,6.30
2023-02-04T07:15:23.501Z,6.20
2023-02-04T07:17:50.666Z,6.20
2023-02-04T07:20:18.052Z,6.10
2023-02-04T07:22:45.138Z,6.20
2023-02-04T07:25:14.950Z,6.10
2023-02-04T07:27:42.076Z,6.10
2023-02-04T07:30:10.656Z,6.10
2023-02-04T07:32:37.745Z,6.10
2023-02-04T07:35:05.056Z,6.00
2023-02-04T07:37:32.156Z,6.10
2023-02-04T07:39:59.500Z,6.10
2023-02-04T07:42:28.342Z,6.10
2023-02-04T07:44:55.523Z,6.20
2023-02-04T07:47:22.477Z,6.20
2023-02-04T07:49:51.075Z,6.30
2023-02-04T07:52:18.234Z,6.20
2023-02-04T07:54:45.537Z,6.20
2023-02-04T07:57:12.679Z,6.20
2023-02-04T07:59:39.837Z,6.20
2023-02-04T08:02:07.245Z,6.30
2023-02-04T08:04:34.372Z,6.30
2023-02-04T08:07:01.342Z,6.30
2023-02-04T08:09:28.292Z,6.40
2023-02-04T08:11:55.307Z,6.30
2023-02-04T08:14:22.410Z,6.30
2023-02-04T08:16:49.416Z,6.40
2023-02-04T08:19:19.132Z,6.40
2023-02-04T08:21:46.216Z,6.40
2023-02-04T08:24:14.075Z,6.30
2023-02-04T08:26:42.260Z,6.20
2023-02-04T08:29:09.601Z,6.20
2023-02-04T08:31:37.731Z,6.20
2023-02-04T08:34:05.915Z,6.30
2023-02-04T08:36:33.528Z,6.40
2023-02-04T08:39:00.628Z,6.40
2023-02-04T08:41:27.608Z,6.40
2023-02-04T08:43:54.540Z,6.40
2023-02-04T08:46:22.121Z,6.50
2023-02-04T08:48:49.200Z,6.50
2023-02-04T08:51:17.032Z,6.50
2023-02-04T08:53:44.063Z,6.50
2023-02-04T08:56:15.791Z,6.50
2023-02-04T08:58:43.982Z,6.50
2023-02-04T09:01:13.959Z,6.50
2023-02-04T09:03:41.254Z,6.50
2023-02-04T09:06:08.860Z,6.50
2023-02-04T09:08:35.784Z,6.50
2023-02-04T09:11:03.115Z,6.60
2023-02-04T09:13:30.439Z,6.60
2023-02-04T09:15:57.605Z,6.70
2023-02-04T09:18:25.759Z,6.80
2023-02-04T09:20:53.309Z,6.90
2023-02-04T09:23:20.743Z,7.10
2023-02-04T09:25:48.093Z,7.30
2023-02-04T09:28:17.120Z,7.50
2023-02-04T09:30:46.118Z,7.50
2023-02-04T09:33:15.095Z,7.50
2023-02-04T09:35:42.310Z,7.50
2023-02-04T09:38:09.557Z,7.50
2023-02-04T09:40:44.513Z,7.50
2023-02-04T09:43:16.593Z,7.50
2023-02-04T09:45:43.809Z,7.30
2023-02-04T09:48:13.830Z,7.30
2023-02-04T09:50:41.720Z,7.20
2023-02-04T09:53:15.060Z,7.10
2023-02-04T09:55:45.446Z,7.20
2023-02-04T09:58:21.619Z,7.10
2023-02-04T10:01:09.648Z,7.10
2023-02-04T10:03:37.189Z,7.00
2023-02-04T10:06:04.461Z,6.90
2023-02-04T10:08:33.710Z,6.90
2023-02-04T10:11:01.299Z,6.80
2023-02-04T10:13:33.858Z,7.00
2023-02-04T10:16:01.952Z,7.10
2023-02-04T10:18:32.754Z,7.40
2023-02-04T10:21:18.263Z,7.70
2023-02-04T10:23:49.796Z,8.00
2023-02-04T10:26:18.176Z,8.20
2023-02-04T10:28:46.054Z,8.30
2023-02-04T10:31:33.519Z,8.40
2023-02-04T10:34:31.938Z,8.20
2023-02-04T10:36:59.089Z,8.30
2023-02-04T10:39:28.705Z,8.20
2023-02-04T10:41:57.416Z,8.30
2023-02-04T10:44:40.376Z,8.20
2023-02-04T10:47:17.897Z,8.20
2023-02-04T10:50:15.550Z,8.20
2023-02-04T10:52:45.878Z,8.40
2023-02-04T10:55:16.852Z,8.50
2023-02-04T10:57:46.763Z,8.80
2023-02-04T11:00:21.555Z,8.70
2023-02-04T11:03:02.111Z,8.50
2023-02-04T11:05:34.981Z,8.50
2023-02-04T11:08:03.775Z,8.50
2023-02-04T11:10:33.325Z,8.70
2023-02-04T11:13:04.273Z,8.80
2023-02-04T11:15:50.352Z,8.80
2023-02-04T11:18:20.785Z,8.70
2023-02-04T11:20:53.341Z,8.30
2023-02-04T11:23:26.246Z,8.40
2023-02-04T11:26:09.992Z,8.40
2023-02-04T11:28:47.749Z,8.80
2023-02-04T11:31:20.619Z,8.90
2023-02-04T11:33:49.475Z,8.80
2023-02-04T11:36:17.655Z,8.70
2023-02-04T11:38:49.993Z,8.60
2023-02-04T11:41:28.286Z,8.50
2023-02-04T11:43:57.359Z,8.90
2023-02-04T11:46:27.597Z,8.90
2023-02-04T11:48:56.258Z,9.10
2023-02-04T11:51:31.451Z,9.00
2023-02-04T11:53:58.570Z,9.00
2023-02-04T11:56:29.373Z,9.00
2023-02-04T11:58:58.535Z,9.40
2023-02-04T12:01:32.866Z,9.30
2023-02-04T12:04:04.607Z,9.10
2023-02-04T12:06:37.211Z,9.20
2023-02-04T12:09:05.393Z,9.50
2023-02-04T12:11:32.802Z,9.70
2023-02-04T12:14:10.265Z,9.50
2023-02-04T12:16:56.344Z,9.10
2023-02-04T12:19:25.619Z,9.00
2023-02-04T12:21:54.960Z,9.10
2023-02-04T12:24:22.110Z,9.00
2023-02-04T12:26:49.308Z,8.90
2023-02-04T12:29:16.838Z,8.80
2023-02-04T12:31:43.930Z,8.70
2023-02-04T12:34:11.044Z,8.60
2023-02-04T12:36:38.076Z,8.60
2023-02-04T12:39:05.140Z,8.50
2023-02-04T12:41:32.129Z,8.50
2023-02-04T12:44:01.249Z,8.50
2023-02-04T12:46:29.420Z,8.40
2023-02-04T12:48:56.985Z,8.20
2023-02-04T12:51:24.196Z,8.10
2023-02-04T12:53:51.165Z,7.90
2023-02-04T12:56:20.509Z,8.00
2023-02-04T12:58:47.427Z,8.00
2023-02-04T13:01:14.719Z,8.20
2023-02-04T13:03:42.034Z,8.30
2023-02-04T13:06:09.004Z,8.40
2023-02-04T13:08:35.976Z,8.40
2023-02-04T13:11:03.140Z,8.40
2023-02-04T13:13:30.393Z,8.30
2023-02-04T13:15:57.541Z,8.10
2023-02-04T13:18:24.540Z,7.80
2023-02-04T13:20:51.577Z,7.70
2023-02-04T13:23:18.726Z,7.60
2023-02-04T13:25:45.951Z,7.60
2023-02-04T13:28:14.012Z,7.50
2023-02-04T13:30:41.243Z,7.60
2023-02-04T13:33:08.217Z,7.70
2023-02-04T13:35:35.752Z,7.70
2023-02-04T13:38:02.838Z,7.80
2023-02-04T13:40:29.887Z,7.90
2023-02-04T13:42:56.845Z,8.00
2023-02-04T13:45:23.952Z,8.10
2023-02-04T13:47:52.383Z,8.00
2023-02-04T13:50:19.871Z,7.90
2023-02-04T13:52:46.931Z,8.00
2023-02-04T13:55:15.151Z,8.10
2023-02-04T13:57:42.168Z,8.20
2023-02-04T14:00:10.008Z,8.30
2023-02-04T14:02:37.222Z,8.40
2023-02-04T14:05:04.663Z,8.50
2023-02-04T14:07:33.465Z,8.60
2023-02-04T14:10:00.555Z,8.60
2023-02-04T14:12:27.509Z,8.50
2023-02-04T14:14:54.428Z,8.40
2023-02-04T14:17:21.486Z,8.40
2023-02-04T14:19:48.519Z,8.40
2023-02-04T14:22:15.591Z,8.30
2023-02-04T14:24:42.828Z,8.40
2023-02-04T14:27:10.442Z,8.40
2023-02-04T14:29:37.641Z,8.50
2023-02-04T14:32:05.036Z,8.60
2023-02-04T14:34:32.336Z,8.70
2023-02-04T14:36:59.456Z,8.90
2023-02-04T14:39:26.943Z,9.10
2023-02-04T14:41:54.119Z,9.10
2023-02-04T14:44:21.556Z,9.10
2023-02-04T14:46:49.480Z,9.10
2023-02-04T14:49:17.501Z,9.10
2023-02-04T14:51:44.888Z,9.20
2023-02-04T14:54:11.865Z,9.40
2023-02-04T14:56:38.978Z,9.70
2023-02-04T14:59:06.511Z,9.90
2023-02-04T15:01:34.153Z,10.10
2023-02-04T15:04:01.585Z,10.20
2023-02-04T15:06:28.547Z,10.30
2023-02-04T15:08:55.625Z,10.40
2023-02-04T15:11:22.696Z,10.50
2023-02-04T15:13:49.829Z,10.70
2023-02-04T15:16:16.969Z,10.60
2023-02-04T15:18:44.356Z,10.50
2023-02-04T15:21:11.619Z,10.40
2023-02-04T15:23:38.648Z,10.10
2023-02-04T15:26:05.609Z,9.70
2023-02-04T15:28:32.863Z,9.40
2023-02-04T15:30:59.902Z,9.40
2023-02-04T15:33:27.006Z,9.40
2023-02-04T15:35:53.917Z,9.30
2023-02-04T15:38:20.907Z,8.80
2023-02-04T15:40:47.893Z,8.60
2023-02-04T15:43:14.768Z,8.40
2023-02-04T15:45:43.905Z,8.40
2023-02-04T15:48:11.275Z,8.50
2023-02-04T15:50:39.150Z,8.70
2023-02-04T15:53:06.747Z,8.70
2023-02-04T15:55:33.943Z,8.70
2023-02-04T15:58:01.031Z,8.60
2023-02-04T16:00:28.172Z,8.50
2023-02-04T16:02:55.459Z,8.40
2023-02-04T16:05:23.254Z,8.20
2023-02-04T16:07:50.914Z,8.20
2023-02-04T16:10:18.822Z,8.20
2023-02-04T16:12:47.357Z,8.10
2023-02-04T16:15:15.251Z,8.10
2023-02-04T16:17:43.183Z,8.00
2023-02-04T16:20:10.919Z,7.90
2023-02-04T16:22:38.137Z,7.80
2023-02-04T16:25:06.715Z,7.90
2023-02-04T16:27:33.940Z,7.80
2023-02-04T16:30:01.078Z,7.80
2023-02-04T16:32:28.189Z,7.80
2023-02-04T16:34:56.794Z,7.70
2023-02-04T16:37:23.886Z,7.60
2023-02-04T16:39:52.056Z,7.50
2023-02-04T16:42:19.782Z,7.40
2023-02-04T16:44:47.065Z,7.50
2023-02-04T16:47:14.572Z,7.40
2023-02-04T16:49:44.741Z,7.20
2023-02-04T16:52:11.737Z,7.20
2023-02-04T16:54:38.948Z,7.10
2023-02-04T16:57:05.948Z,7.00
2023-02-04T16:59:33.172Z,7.00
2023-02-04T17:02:03.206Z,6.90
2023-02-04T17:04:32.410Z,6.90
2023-02-04T17:07:00.505Z,6.80
2023-02-04T17:09:28.115Z,6.90
2023-02-04T17:11:55.334Z,6.90
2023-02-04T17:14:24.739Z,6.90
2023-02-04T17:16:51.974Z,6.90
2023-02-04T17:19:20.942Z,6.80
2023-02-04T17:21:48.767Z,6.80
2023-02-04T17:24:16.087Z,6.70
2023-02-04T17:26:43.088Z,6.70
2023-02-04T17:29:12.925Z,6.60
2023-02-04T17:31:43.030Z,6.60
2023-02-04T17:34:10.823Z,6.70
2023-02-04T17:36:38.700Z,6.70
2023-02-04T17:39:07.404Z,6.70
2023-02-04T17:41:34.501Z,6.60
2023-02-04T17:44:03.392Z,6.50
2023-02-04T17:46:31.343Z,6.50
2023-02-04T17:48:59.003Z,6.50
2023-02-04T17:51:26.120Z,6.40
2023-02-04T17:53:53.186Z,6.40
2023-02-04T17:56:21.395Z,6.40
2023-02-04T17:58:49.511Z,6.30
2023-02-04T18:01:21.822Z,6.30
2023-02-04T18:03:50.053Z,6.40
2023-02-04T18:06:27.374Z,6.40
2023-02-04T18:09:01.445Z,6.20
2023-02-04T18:11:32.939Z,6.20
2023-02-04T18:14:10.529Z,6.10
2023-02-04T18:16:39.763Z,6.10
2023-02-04T18:19:18.592Z,6.00
2023-02-04T18:21:46.631Z,5.90
2023-02-04T18:24:30.681Z,5.90
2023-02-04T18:27:01.599Z,5.80
2023-02-04T18:29:36.862Z,5.70
2023-02-04T18:32:15.714Z,5.70
2023-02-04T18:34:51.000Z,5.70
2023-02-04T18:37:42.858Z,5.60
2023-02-04T18:40:09.874Z,5.50
2023-02-04T18:42:39.239Z,5.50
2023-02-04T18:45:25.486Z,5.40
2023-02-04T18:48:00.252Z,5.30
2023-02-04T18:50:30.883Z,5.30
2023-02-04T18:53:15.156Z,5.40
2023-02-04T18:55:45.078Z,5.30
2023-02-04T18:58:34.678Z,5.30
2023-02-04T19:01:07.998Z,5.30
2023-02-04T19:03:46.869Z,5.20
2023-02-04T19:06:27.467Z,5.20
2023-02-04T19:09:13.445Z,5.10
2023-02-04T19:11:46.130Z,5.20
2023-02-04T19:14:38.853Z,5.10
2023-02-04T19:17:16.966Z,5.00
2023-02-04T19:19:52.423Z,5.00
2023-02-04T19:22:32.086Z,4.90
2023-02-04T19:25:25.397Z,4.80
2023-02-04T19:27:55.950Z,4.70
2023-02-04T19:30:28.766Z,4.80
2023-02-04T19:32:57.545Z,4.70
2023-02-04T19:35:38.586Z,4.60
2023-02-04T19:38:40.834Z,4.60
2023-02-04T19:41:27.821Z,4.50
2023-02-04T19:44:26.941Z,4.50
2023-02-04T19:46:54.236Z,4.60
2023-02-04T19:49:24.609Z,4.60
2023-02-04T19:51:54.369Z,4.50
2023-02-04T19:54:34.499Z,4.30
2023-02-04T19:57:01.524Z,4.20
2023-02-04T19:59:35.678Z,4.10
2023-02-04T20:02:35.682Z,4.00
2023-02-04T20:05:15.950Z,3.90
2023-02-04T20:07:42.946Z,3.90
2023-02-04T20:10:24.282Z,3.90
2023-02-04T20:13:11.609Z,3.80
2023-02-04T20:15:38.770Z,3.70
2023-02-04T20:18:19.959Z,3.70
2023-02-04T20:20:47.385Z,3.60
2023-02-04T20:23:29.106Z,3.50
2023-02-04T20:25:57.058Z,3.50
2023-02-04T20:28:35.168Z,3.40
2023-02-04T20:31:15.472Z,3.30
2023-02-04T20:33:49.232Z,3.30
2023-02-04T20:36:40.641Z,3.20
2023-02-04T20:39:29.367Z,3.10
2023-02-04T20:42:27.486Z,3.00
2023-02-04T20:44:55.180Z,3.00
2023-02-04T20:47:26.171Z,3.00
2023-02-04T20:49:58.561Z,3.00
2023-02-04T20:53:20.828Z,2.90
2023-02-04T20:56:03.740Z,2.90
2023-02-04T20:58:36.940Z,2.70
2023-02-04T21:01:35.702Z,2.70
2023-02-04T21:04:23.122Z,2.80
2023-02-04T21:06:52.913Z,2.70
2023-02-04T21:09:23.922Z,2.60
2023-02-04T21:11:52.323Z,2.60
2023-02-04T21:14:19.982Z,2.60
2023-02-04T21:16:47.604Z,2.70
2023-02-04T21:19:15.021Z,2.50
2023-02-04T21:21:42.710Z,2.50
2023-02-04T21:24:10.243Z,2.50
2023-02-04T21:26:37.609Z,2.50
2023-02-04T21:29:04.734Z,2.30
2023-02-04T21:31:32.611Z,2.30
2023-02-04T21:34:00.007Z,2.20
2023-02-04T21:36:30.226Z,2.20
2023-02-04T21:38:58.408Z,2.30
2023-02-04T21:41:25.725Z,2.30
2023-02-04T21:43:53.853Z,2.20
2023-02-04T21:46:21.323Z,2.20
2023-02-04T21:48:48.509Z,2.20
2023-02-04T21:51:15.907Z,2.10
2023-02-04T21:53:42.898Z,2.10
2023-02-04T21:56:10.869Z,2.10
2023-02-04T21:58:38.673Z,2.30
2023-02-04T22:01:05.824Z,2.30
2023-02-04T22:03:33.184Z,2.10
2023-02-04T22:06:00.253Z,2.10
2023-02-04T22:08:27.365Z,2.10
2023-02-04T22:10:54.444Z,2.00
2023-02-04T22:13:39.893Z,2.00
2023-02-04T22:16:06.919Z,2.00
2023-02-04T22:18:33.910Z,2.00
2023-02-04T22:21:00.967Z,2.10
2023-02-04T22:23:27.899Z,2.00
2023-02-04T22:25:54.852Z,2.00
2023-02-04T22:28:21.880Z,2.10
2023-02-04T22:30:49.003Z,2.10
2023-02-04T22:33:16.113Z,2.10
2023-02-04T22:35:43.069Z,2.10
2023-02-04T22:38:10.045Z,2.10
2023-02-04T22:40:37.033Z,2.10
2023-02-04T22:43:04.885Z,2.20
2023-02-04T22:45:32.469Z,2.20
2023-02-04T22:47:59.837Z,2.20
2023-02-04T22:50:27.128Z,2.20
2023-02-04T22:52:54.180Z,2.20
2023-02-04T22:55:21.203Z,2.30
2023-02-04T22:57:48.224Z,2.30
2023-02-04T23:00:16.315Z,2.30
2023-02-04T23:02:43.428Z,2.30
2023-02-04T23:05:10.687Z,2.30
2023-02-04T23:07:37.769Z,2.40
2023-02-04T23:10:05.260Z,2.30
2023-02-04T23:12:32.374Z,2.30
2023-02-04T23:14:59.285Z,2.30
2023-02-04T23:17:26.290Z,2.40
2023-02-04T23:19:53.277Z,2.40
2023-02-04T23:22:20.394Z,2.50
2023-02-04T23:24:49.555Z,2.40
2023-02-04T23:27:16.978Z,2.30
2023-02-04T23:29:44.015Z,2.30
2023-02-04T23:32:11.255Z,2.40
2023-02-04T23:34:38.322Z,2.40
2023-02-04T23:37:05.365Z,2.50
2023-02-04T23:39:32.735Z,2.60
2023-02-04T23:41:59.729Z,2.50
2023-02-04T23:44:26.777Z,2.50
2023-02-04T23:46:54.516Z,2.60
2023-02-04T23:49:21.623Z,2.60
2023-02-04T23:51:48.546Z,2.60
2023-02-04T23:54:15.557Z,2.60
2023-02-04T23:56:42.471Z,2.50
2023-02-04T23:59:09.464Z,2.50
